createdAt,value
2022-11-07T00:00:18.455Z,7.01
2022-11-07T00:03:21.826Z,7.03
2022-11-07T00:06:26.310Z,7.03
2022-11-07T00:09:29.656Z,7.00
2022-11-07T00:12:35.240Z,7.00
2022-11-07T00:15:38.170Z,7.03
2022-11-07T00:18:41.241Z,7.05
2022-11-07T00:21:46.133Z,7.04
2022-11-07T00:24:49.111Z,7.05
2022-11-07T00:27:52.373Z,7.05
2022-11-07T00:30:55.433Z,7.04
2022-11-07T00:33:58.990Z,7.04
2022-11-07T00:37:03.417Z,7.05
2022-11-07T00:40:09.000Z,7.01
2022-11-07T00:43:12.211Z,7.00
2022-11-07T00:46:17.578Z,7.00
2022-11-07T00:49:20.733Z,7.01
2022-11-07T00:52:24.994Z,6.98
2022-11-07T00:55:27.954Z,6.95
2022-11-07T00:58:31.674Z,6.96
2022-11-07T01:01:36.136Z,6.96
2022-11-07T01:04:57.206Z,6.98
2022-11-07T01:08:01.530Z,7.00
2022-11-07T01:11:07.505Z,7.00
2022-11-07T01:14:11.756Z,7.03
2022-11-07T01:17:14.690Z,6.99
2022-11-07T01:20:17.699Z,7.01
2022-11-07T01:23:22.853Z,7.08
2022-11-07T01:26:25.811Z,7.07
2022-11-07T01:29:28.759Z,7.03
2022-11-07T01:32:31.808Z,7.06
2022-11-07T01:35:36.004Z,7.04
2022-11-07T01:38:43.006Z,7.02
2022-11-07T01:41:46.174Z,7.06
2022-11-07T01:44:57.522Z,7.04
2022-11-07T01:48:03.050Z,7.03
2022-11-07T01:51:06.976Z,7.06
2022-11-07T01:54:13.221Z,7.04
2022-11-07T01:57:21.988Z,7.03
2022-11-07T02:00:26.223Z,6.96
2022-11-07T02:03:29.197Z,6.90
2022-11-07T02:06:40.801Z,6.93
2022-11-07T02:09:45.819Z,6.89
2022-11-07T02:12:48.978Z,6.95
2022-11-07T02:15:52.010Z,7.00
2022-11-07T02:18:55.699Z,7.00
2022-11-07T02:22:05.694Z,7.01
2022-11-07T02:25:13.227Z,7.02
2022-11-07T02:28:18.029Z,7.02
2022-11-07T02:31:21.042Z,7.06
2022-11-07T02:34:23.997Z,7.06
2022-11-07T02:37:31.372Z,7.07
2022-11-07T02:40:36.323Z,6.97
2022-11-07T02:43:42.517Z,7.03
2022-11-07T02:46:45.743Z,6.99
2022-11-07T02:49:48.915Z,7.02
2022-11-07T02:52:51.915Z,6.96
2022-11-07T02:55:56.240Z,6.93
2022-11-07T02:58:59.889Z,6.91
2022-11-07T03:02:02.962Z,6.93
2022-11-07T03:05:07.056Z,7.00
2022-11-07T03:08:10.052Z,6.97
2022-11-07T03:11:19.579Z,6.97
2022-11-07T03:14:22.613Z,6.99
2022-11-07T03:17:25.588Z,7.02
2022-11-07T03:20:28.675Z,7.10
2022-11-07T03:23:32.465Z,7.08
2022-11-07T03:26:36.938Z,7.12
2022-11-07T03:29:39.878Z,7.14
2022-11-07T03:32:43.204Z,7.15
2022-11-07T03:35:46.305Z,7.21
2022-11-07T03:38:49.241Z,7.24
2022-11-07T03:41:53.520Z,7.32
2022-11-07T03:44:56.531Z,7.40
2022-11-07T03:47:59.623Z,7.41
2022-11-07T03:51:02.938Z,7.46
2022-11-07T03:54:06.035Z,7.53
2022-11-07T03:57:10.321Z,7.57
2022-11-07T04:00:16.029Z,7.66
2022-11-07T04:03:19.109Z,7.71
2022-11-07T04:06:22.842Z,7.75
2022-11-07T04:09:25.824Z,7.80
2022-11-07T04:12:47.550Z,7.85
2022-11-07T04:16:11.314Z,7.87
2022-11-07T04:19:16.594Z,7.92
2022-11-07T04:22:20.418Z,7.91
2022-11-07T04:25:43.325Z,7.96
2022-11-07T04:28:46.628Z,7.96
2022-11-07T04:31:49.545Z,8.04
2022-11-07T04:34:52.758Z,8.05
2022-11-07T04:37:55.730Z,8.08
2022-11-07T04:40:59.358Z,8.09
2022-11-07T04:44:03.619Z,8.09
2022-11-07T04:47:06.549Z,8.17
2022-11-07T04:50:12.847Z,8.24
2022-11-07T04:53:18.794Z,8.27
2022-11-07T04:56:21.725Z,8.30
2022-11-07T04:59:26.088Z,8.35
2022-11-07T05:02:29.170Z,8.38
2022-11-07T05:05:32.311Z,8.35
2022-11-07T05:08:35.427Z,8.34
2022-11-07T05:11:41.195Z,8.35
2022-11-07T05:14:45.417Z,8.32
2022-11-07T05:17:48.409Z,8.35
2022-11-07T05:20:51.926Z,8.37
2022-11-07T05:23:54.850Z,8.37
2022-11-07T05:26:58.023Z,8.34
2022-11-07T05:30:02.362Z,8.38
2022-11-07T05:33:05.615Z,8.39
2022-11-07T05:36:14.827Z,8.39
2022-11-07T05:39:18.022Z,8.42
2022-11-07T05:42:20.935Z,8.43
2022-11-07T05:45:25.165Z,8.43
2022-11-07T05:48:28.581Z,8.42
2022-11-07T05:51:31.589Z,8.39
2022-11-07T05:54:34.501Z,8.42
2022-11-07T05:57:37.410Z,8.43
2022-11-07T06:00:42.172Z,8.42
2022-11-07T06:03:45.136Z,8.48
2022-11-07T06:06:48.336Z,8.49
2022-11-07T06:09:51.349Z,8.49
2022-11-07T06:13:02.060Z,8.55
2022-11-07T06:16:07.935Z,8.54
2022-11-07T06:19:10.862Z,8.54
2022-11-07T06:22:14.154Z,8.57
2022-11-07T06:25:17.329Z,8.59
2022-11-07T06:28:20.313Z,8.53
2022-11-07T06:31:24.644Z,8.56
2022-11-07T06:34:27.703Z,8.61
2022-11-07T06:37:30.631Z,8.63
2022-11-07T06:40:33.678Z,8.64
2022-11-07T06:43:37.207Z,8.61
2022-11-07T06:46:41.485Z,8.56
2022-11-07T06:49:44.422Z,8.61
2022-11-07T06:52:47.366Z,8.59
2022-11-07T06:55:50.538Z,8.62
2022-11-07T06:58:53.531Z,8.65
2022-11-07T07:01:57.874Z,8.69
2022-11-07T07:05:01.251Z,8.69
2022-11-07T07:08:05.293Z,8.68
2022-11-07T07:11:10.678Z,8.70
2022-11-07T07:14:13.874Z,8.77
2022-11-07T07:17:18.577Z,8.71
2022-11-07T07:20:21.660Z,8.74
2022-11-07T07:23:24.648Z,8.81
2022-11-07T07:26:28.393Z,8.82
2022-11-07T07:29:31.819Z,8.87
2022-11-07T07:32:37.662Z,8.91
2022-11-07T07:35:40.606Z,8.99
2022-11-07T07:38:43.625Z,9.05
2022-11-07T07:41:48.144Z,9.11
2022-11-07T07:44:56.454Z,9.19
2022-11-07T07:48:02.981Z,9.20
2022-11-07T07:51:06.313Z,9.22
2022-11-07T07:54:09.574Z,9.24
2022-11-07T07:57:12.556Z,9.33
2022-11-07T08:00:16.408Z,9.40
2022-11-07T08:03:20.726Z,9.41
2022-11-07T08:06:23.869Z,9.43
2022-11-07T08:09:26.781Z,9.45
2022-11-07T08:12:30.041Z,9.52
2022-11-07T08:15:33.175Z,9.56
2022-11-07T08:18:39.898Z,9.63
2022-11-07T08:21:44.871Z,9.68
2022-11-07T08:24:47.805Z,9.77
2022-11-07T08:27:51.176Z,9.80
2022-11-07T08:30:58.156Z,9.85
2022-11-07T08:34:02.679Z,9.89
2022-11-07T08:37:05.753Z,9.99
2022-11-07T08:40:10.411Z,10.09
2022-11-07T08:43:17.232Z,10.17
2022-11-07T08:46:20.500Z,10.31
2022-11-07T08:49:24.928Z,10.35
2022-11-07T08:52:27.860Z,10.46
2022-11-07T08:55:34.264Z,10.67
2022-11-07T08:58:38.344Z,10.81
2022-11-07T09:02:15.138Z,10.82
2022-11-07T09:05:06.315Z,10.87
2022-11-07T09:08:09.230Z,10.94
2022-11-07T09:11:15.427Z,11.01
2022-11-07T09:14:18.749Z,11.05
2022-11-07T09:17:21.754Z,11.09
2022-11-07T09:20:25.993Z,11.10
2022-11-07T09:23:29.005Z,11.20
2022-11-07T09:26:32.442Z,11.26
2022-11-07T09:29:36.071Z,11.34
2022-11-07T09:32:45.074Z,11.49
2022-11-07T09:35:50.237Z,11.61
2022-11-07T09:38:56.079Z,11.60
2022-11-07T09:42:07.333Z,11.65
2022-11-07T09:45:14.109Z,11.68
2022-11-07T09:48:24.589Z,11.73
2022-11-07T09:51:38.712Z,11.86
2022-11-07T09:54:47.201Z,12.01
2022-11-07T09:57:51.698Z,12.15
2022-11-07T10:00:58.622Z,12.26
2022-11-07T10:04:24.251Z,12.30
2022-11-07T10:07:38.136Z,12.33
2022-11-07T10:10:47.790Z,12.34
2022-11-07T10:14:03.122Z,12.39
2022-11-07T10:17:14.646Z,12.55
2022-11-07T10:20:31.994Z,12.52
2022-11-07T10:23:55.591Z,12.68
2022-11-07T10:26:59.118Z,12.81
2022-11-07T10:30:02.499Z,12.77
2022-11-07T10:33:15.217Z,12.83
2022-11-07T10:36:24.746Z,13.05
2022-11-07T10:39:32.763Z,13.25
2022-11-07T10:42:36.170Z,13.25
2022-11-07T10:45:40.222Z,13.35
2022-11-07T10:48:52.851Z,13.69
2022-11-07T10:52:07.721Z,13.84
2022-11-07T10:55:17.877Z,13.84
2022-11-07T10:58:23.509Z,14.03
2022-11-07T11:01:28.263Z,14.06
2022-11-07T11:04:33.430Z,14.17
2022-11-07T11:07:39.442Z,14.34
2022-11-07T11:10:43.958Z,14.35
2022-11-07T11:13:47.632Z,14.51
2022-11-07T11:16:55.027Z,14.62
2022-11-07T11:19:58.209Z,14.79
2022-11-07T11:23:01.980Z,14.88
2022-11-07T11:26:09.307Z,14.77
2022-11-07T11:29:21.408Z,14.67
2022-11-07T11:32:32.224Z,14.53
2022-11-07T11:35:42.354Z,14.60
2022-11-07T11:38:54.293Z,14.48
2022-11-07T11:42:00.034Z,14.38
2022-11-07T11:45:17.990Z,14.35
2022-11-07T11:48:25.927Z,14.58
2022-11-07T11:51:41.355Z,14.62
2022-11-07T11:54:46.056Z,14.85
2022-11-07T11:58:00.647Z,14.96
2022-11-07T12:01:15.357Z,15.03
2022-11-07T12:04:39.363Z,15.00
2022-11-07T12:07:57.324Z,14.97
2022-11-07T12:11:04.783Z,14.92
2022-11-07T12:14:57.360Z,14.95
2022-11-07T12:18:07.010Z,14.85
2022-11-07T12:21:24.827Z,14.70
2022-11-07T12:24:38.916Z,14.66
2022-11-07T12:27:49.171Z,14.67
2022-11-07T12:31:05.309Z,14.68
2022-11-07T12:34:26.840Z,14.67
2022-11-07T12:37:49.510Z,14.74
2022-11-07T12:41:00.858Z,14.89
2022-11-07T12:44:21.921Z,14.97
2022-11-07T12:47:46.506Z,14.91
2022-11-07T12:50:58.207Z,15.01
2022-11-07T12:54:20.619Z,14.90
2022-11-07T12:57:26.226Z,14.86
2022-11-07T13:00:30.666Z,14.49
2022-11-07T13:04:00.639Z,14.48
2022-11-07T13:07:11.583Z,14.44
2022-11-07T13:10:21.979Z,14.42
2022-11-07T13:13:36.256Z,14.37
2022-11-07T13:16:50.640Z,14.34
2022-11-07T13:20:03.645Z,14.27
2022-11-07T13:23:16.904Z,14.22
2022-11-07T13:29:53.379Z,14.19
2022-11-07T13:32:56.550Z,14.19
2022-11-07T13:36:15.318Z,14.18
2022-11-07T13:39:19.139Z,14.15
2022-11-07T13:42:26.951Z,14.08
2022-11-07T13:45:39.353Z,13.93
2022-11-07T13:48:50.167Z,13.96
2022-11-07T13:51:58.974Z,13.94
2022-11-07T13:55:09.485Z,13.89
2022-11-07T13:58:16.398Z,13.97
2022-11-07T14:01:19.693Z,13.94
2022-11-07T14:04:23.518Z,13.95
2022-11-07T14:07:28.462Z,13.83
2022-11-07T14:10:38.789Z,13.81
2022-11-07T14:13:42.234Z,13.72
2022-11-07T14:16:47.322Z,13.75
2022-11-07T14:19:50.247Z,13.65
2022-11-07T14:22:57.160Z,13.70
2022-11-07T14:26:03.568Z,13.74
2022-11-07T14:29:06.501Z,13.74
2022-11-07T14:32:18.489Z,13.64
2022-11-07T14:35:30.650Z,13.59
2022-11-07T14:38:35.268Z,13.52
2022-11-07T14:41:42.506Z,13.49
2022-11-07T14:44:54.459Z,13.48
2022-11-07T14:47:58.406Z,13.43
2022-11-07T14:51:03.227Z,13.45
2022-11-07T14:54:14.491Z,13.48
2022-11-07T14:57:18.087Z,13.45
2022-11-07T15:00:23.315Z,13.41
2022-11-07T15:03:35.548Z,13.38
2022-11-07T15:06:45.369Z,13.37
2022-11-07T15:09:51.339Z,13.32
2022-11-07T15:12:58.695Z,13.22
2022-11-07T15:16:05.689Z,13.22
2022-11-07T15:19:11.002Z,13.24
2022-11-07T15:22:29.910Z,13.19
2022-11-07T15:25:39.398Z,13.19
2022-11-07T15:28:47.882Z,13.23
2022-11-07T15:31:50.834Z,13.26
2022-11-07T15:35:23.015Z,13.24
2022-11-07T15:38:23.501Z,13.22
2022-11-07T15:41:27.783Z,13.13
2022-11-07T15:44:30.697Z,13.10
2022-11-07T15:47:34.166Z,13.14
2022-11-07T15:50:43.455Z,13.18
2022-11-07T15:53:46.532Z,13.11
2022-11-07T15:56:54.558Z,13.07
2022-11-07T16:00:02.639Z,13.16
2022-11-07T16:03:17.009Z,13.18
2022-11-07T16:06:30.848Z,13.23
2022-11-07T16:09:34.105Z,13.10
2022-11-07T16:12:38.378Z,13.04
2022-11-07T16:15:47.718Z,13.04
2022-11-07T16:18:53.610Z,13.08
2022-11-07T16:21:56.674Z,13.08
2022-11-07T16:24:59.688Z,12.89
2022-11-07T16:28:06.131Z,12.88
2022-11-07T16:31:09.064Z,13.00
2022-11-07T16:34:13.099Z,12.99
2022-11-07T16:37:16.329Z,12.96
2022-11-07T16:40:23.553Z,12.86
2022-11-07T16:43:27.831Z,12.74
2022-11-07T16:46:36.446Z,12.68
2022-11-07T16:49:39.730Z,12.61
2022-11-07T16:52:43.804Z,12.44
2022-11-07T16:55:53.529Z,12.39
2022-11-07T16:58:58.816Z,12.27
2022-11-07T17:02:02.075Z,12.25
2022-11-07T17:05:06.125Z,12.30
2022-11-07T17:08:17.523Z,12.17
2022-11-07T17:11:21.167Z,11.99
2022-11-07T17:14:25.433Z,11.81
2022-11-07T17:17:28.378Z,11.73
2022-11-07T17:20:50.502Z,11.87
2022-11-07T17:23:56.079Z,11.95
2022-11-07T17:26:59.728Z,11.98
2022-11-07T17:30:08.568Z,12.07
2022-11-07T17:33:11.930Z,12.09
2022-11-07T17:36:26.320Z,12.17
2022-11-07T17:39:29.424Z,12.24
2022-11-07T17:42:37.728Z,12.25
2022-11-07T17:45:42.787Z,12.12
2022-11-07T17:48:47.428Z,12.04
2022-11-07T17:51:52.724Z,12.08
2022-11-07T17:54:56.049Z,12.15
2022-11-07T17:57:58.951Z,12.16
2022-11-07T18:01:04.900Z,12.18
2022-11-07T18:04:09.842Z,12.24
2022-11-07T18:07:13.759Z,12.29
2022-11-07T18:10:17.943Z,12.31
2022-11-07T18:13:23.626Z,12.41
2022-11-07T18:16:32.121Z,12.45
2022-11-07T18:19:35.283Z,12.46
2022-11-07T18:22:38.493Z,12.45
2022-11-07T18:25:41.524Z,12.51
2022-11-07T18:28:46.265Z,12.52
2022-11-07T18:31:51.770Z,12.52
2022-11-07T18:34:54.821Z,12.52
2022-11-07T18:37:57.903Z,12.45
2022-11-07T18:41:03.859Z,12.43
2022-11-07T18:44:07.010Z,12.42
2022-11-07T18:47:12.136Z,12.24
2022-11-07T18:50:15.139Z,12.29
2022-11-07T18:53:19.782Z,12.24
2022-11-07T18:56:23.224Z,12.16
2022-11-07T18:59:27.292Z,12.13
2022-11-07T19:02:33.693Z,12.05
2022-11-07T19:05:41.065Z,12.09
2022-11-07T19:08:47.217Z,11.95
2022-11-07T19:11:50.270Z,11.88
2022-11-07T19:14:53.981Z,11.76
2022-11-07T19:17:58.222Z,11.67
2022-11-07T19:21:01.648Z,11.63
2022-11-07T19:24:05.754Z,11.55
2022-11-07T19:27:09.272Z,11.55
2022-11-07T19:30:15.276Z,11.52
2022-11-07T19:33:20.253Z,11.54
2022-11-07T19:36:24.013Z,11.58
2022-11-07T19:39:27.217Z,11.61
2022-11-07T19:42:31.343Z,11.65
2022-11-07T19:45:34.516Z,11.66
2022-11-07T19:48:38.842Z,11.75
2022-11-07T19:51:45.043Z,11.78
2022-11-07T19:54:50.614Z,11.75
2022-11-07T19:57:54.031Z,11.67
2022-11-07T20:00:56.994Z,11.71
2022-11-07T20:04:02.514Z,11.67
2022-11-07T20:07:05.843Z,11.71
2022-11-07T20:10:10.063Z,11.74
2022-11-07T20:13:13.089Z,11.83
2022-11-07T20:16:17.049Z,11.78
2022-11-07T20:19:21.420Z,11.77
2022-11-07T20:22:24.398Z,11.73
2022-11-07T20:25:27.564Z,11.71
2022-11-07T20:28:30.639Z,11.71
2022-11-07T20:31:37.659Z,11.74
2022-11-07T20:34:41.922Z,11.81
2022-11-07T20:37:44.972Z,11.75
2022-11-07T20:40:48.009Z,11.78
2022-11-07T20:43:55.778Z,11.80
2022-11-07T20:46:58.793Z,11.73
2022-11-07T20:50:03.069Z,11.73
2022-11-07T20:53:06.057Z,11.77
2022-11-07T20:56:11.229Z,11.72
2022-11-07T20:59:14.241Z,11.71
2022-11-07T21:02:18.105Z,11.84
2022-11-07T21:05:22.397Z,11.88
2022-11-07T21:08:26.058Z,11.87
2022-11-07T21:11:30.444Z,11.79
2022-11-07T21:14:33.456Z,11.86
2022-11-07T21:17:36.974Z,11.88
2022-11-07T21:20:41.909Z,11.88
2022-11-07T21:23:45.473Z,11.90
2022-11-07T21:26:48.537Z,11.84
2022-11-07T21:29:52.013Z,11.78
2022-11-07T21:32:55.049Z,11.78
2022-11-07T21:35:59.459Z,11.71
2022-11-07T21:39:03.290Z,11.68
2022-11-07T21:42:06.704Z,11.65
2022-11-07T21:45:11.986Z,11.65
2022-11-07T21:48:16.539Z,11.71
2022-11-07T21:51:23.782Z,11.71
2022-11-07T21:54:26.749Z,11.73
2022-11-07T21:57:29.960Z,11.76
2022-11-07T22:00:36.297Z,11.78
2022-11-07T22:07:04.593Z,11.78
2022-11-07T22:10:09.053Z,11.75
2022-11-07T22:13:12.740Z,11.68
2022-11-07T22:16:18.462Z,11.64
2022-11-07T22:19:21.577Z,11.64
2022-11-07T22:22:26.074Z,11.59
2022-11-07T22:25:29.115Z,11.62
2022-11-07T22:28:32.147Z,11.60
2022-11-07T22:31:36.166Z,11.51
2022-11-07T22:34:39.388Z,11.53
2022-11-07T22:37:43.696Z,11.43
2022-11-07T22:40:47.474Z,11.43
2022-11-07T22:43:51.147Z,11.39
2022-11-07T22:46:54.147Z,11.37
2022-11-07T22:49:57.407Z,11.42
2022-11-07T22:53:02.071Z,11.39
2022-11-07T22:56:08.976Z,11.42
2022-11-07T22:59:13.570Z,11.35
2022-11-07T23:02:16.809Z,11.35
2022-11-07T23:05:19.943Z,11.35
2022-11-07T23:08:25.689Z,11.30
2022-11-07T23:11:48.243Z,11.35
2022-11-07T23:14:52.158Z,11.35
2022-11-07T23:17:55.122Z,11.27
2022-11-07T23:21:10.482Z,11.25
2022-11-07T23:24:15.634Z,11.23
2022-11-07T23:27:19.559Z,11.21
2022-11-07T23:30:22.860Z,11.14
2022-11-07T23:33:25.872Z,11.17
2022-11-07T23:36:28.894Z,11.18
2022-11-07T23:39:33.349Z,11.22
2022-11-07T23:42:36.449Z,11.14
2022-11-07T23:45:57.119Z,11.14
2022-11-07T23:49:17.537Z,11.18
2022-11-07T23:52:20.772Z,11.20
2022-11-07T23:55:42.356Z,11.26
2022-11-07T23:59:03.430Z,11.15
